Pagina principale
METAR-TAF:

METAR-TAF

Aeroporti :

Pian Rosa, Italia

latitudine: 45-56N, longitudine: 007-42E, altezza: 3480 m

Osservazione

Il bollettino è stato emesso 40 minuti fa, alle 08:55 UTC
Vento 5 kt da sud-ovest
Temperature -5°C
Umidità 49%
Pressione 1015 hPa
Visibilità 10 km o più
Cielo coperto ad un'altezza di 1000 ft

METAR: LIMH 110855Z 22005KT 9999 OVC010 M05/M14 Q1015 RMK OVC MON INC VAL NIL VIS MIN 9999

Ora: 10:35 (09:35 UTC)


TAF: mancante

Osservazioni e previsioni meteorologiche di più di 4000 aeroporti (messaggi METAR e TAF).

Le stazioni disponibili sono rappresentate dai dischi gialli e rossi sulla carta.

Puntare il mouse per vedere il nome della stazione.

Clicca sopra per visualizzare le osservazioni e previsioni meteorologiche.

Per cambiare la mappa : fare clic sui pulsanti verdi con una croce nera per ingrandire, il pulsante verde con un trattino per diminuire, o sulla freccia verde per le mappe adiacenti.


METAR-TAF: